Tillsonburg, Canada
Current Conditions -  °F | °C
As of 10:10 AM on Saturday 22 Nov 2014 (Local Time) from CYHM Reporting Station
Light Rain Light Rain  
Wind Chill: 22°   Ceiling: 1900
Heat Index: 34°   Visibility: 12mi
Dew Point: 25°   Wind: 20mph
Humidity: 70%   Direction: 210°SSW
Pressure: 30.07"   Gusts: 28mph
Location:  42.8°N, 80.15°W
Report Text: CYHM 221510Z 21017G24KT 12SM -RA BKN019 BKN070 01/M04 A3007 RMK SC6AC1 SLP195
Loading
Personal Weather Stations






























Interactive Weather Map New forecast layout! Learn more

10-Day Weather Forecast

Advertisements
Track Severe Weather on mobile